createdAt,value
2019-03-05T00:00:38.234Z,100390.44
2019-03-05T00:03:07.816Z,100386.44
2019-03-05T00:05:37.330Z,100392.69
2019-03-05T00:08:06.813Z,100387.44
2019-03-05T00:10:36.557Z,100384.20
2019-03-05T00:13:06.052Z,100384.70
2019-03-05T00:15:35.566Z,100387.10
2019-03-05T00:18:05.408Z,100388.84
2019-03-05T00:20:34.976Z,100381.67
2019-03-05T00:23:04.444Z,100382.38
2019-03-05T00:25:37.083Z,100381.09
2019-03-05T00:28:25.528Z,100380.23
2019-03-05T00:30:59.913Z,100367.70
2019-03-05T00:33:46.011Z,100397.88
2019-03-05T00:36:42.535Z,100380.34
2019-03-05T00:39:16.645Z,100396.72
2019-03-05T00:42:27.325Z,100398.50
2019-03-05T00:45:25.905Z,100397.20
2019-03-05T00:48:24.739Z,100398.69
2019-03-05T00:51:36.461Z,100399.70
2019-03-05T00:54:42.371Z,100395.56
2019-03-05T00:57:37.500Z,100392.09
2019-03-05T01:00:47.928Z,100389.64
2019-03-05T01:03:53.869Z,100396.13
2019-03-05T01:06:27.600Z,100395.33
2019-03-05T01:08:58.138Z,100402.92
2019-03-05T01:14:31.201Z,100398.82
2019-03-05T01:17:00.688Z,100397.91
2019-03-05T01:19:30.143Z,100399.98
2019-03-05T01:21:59.649Z,100399.50
2019-03-05T01:24:29.051Z,100398.70
2019-03-05T01:26:58.853Z,100401.05
2019-03-05T01:29:28.322Z,100394.81
2019-03-05T01:31:59.444Z,100403.17
2019-03-05T01:34:30.614Z,100409.23
2019-03-05T01:37:02.068Z,100412.19
2019-03-05T01:39:49.737Z,100416.05
2019-03-05T01:42:19.589Z,100417.13
2019-03-05T01:44:49.092Z,100413.87
2019-03-05T01:47:18.553Z,100413.95
2019-03-05T01:49:48.006Z,100416.97
2019-03-05T01:52:17.427Z,100422.70
2019-03-05T01:54:46.836Z,100416.20
2019-03-05T01:57:16.238Z,100411.91
2019-03-05T01:59:45.703Z,100413.55
2019-03-05T02:02:15.078Z,100401.66
2019-03-05T02:04:44.569Z,100422.00
2019-03-05T02:07:14.006Z,100410.45
2019-03-05T02:09:43.509Z,100412.30
2019-03-05T02:12:13.127Z,100405.32
2019-03-05T02:14:42.618Z,100406.66
2019-03-05T02:17:12.177Z,100413.17
2019-03-05T02:19:44.624Z,100415.66
2019-03-05T02:22:27.650Z,100413.08
2019-03-05T02:25:20.282Z,100408.24
2019-03-05T02:28:12.403Z,100409.48
2019-03-05T02:30:52.186Z,100406.77
2019-03-05T02:33:38.032Z,100401.31
2019-03-05T02:36:20.931Z,100408.25
2019-03-05T02:39:00.749Z,100394.77
2019-03-05T02:41:43.325Z,100399.63
2019-03-05T02:44:29.293Z,100396.02
2019-03-05T02:47:14.693Z,100392.63
2019-03-05T02:50:14.487Z,100400.28
2019-03-05T02:53:04.930Z,100392.33
2019-03-05T02:55:50.975Z,100395.14
2019-03-05T02:58:18.851Z,100388.03
2019-03-05T03:00:58.808Z,100383.80
2019-03-05T03:03:32.495Z,100383.95
2019-03-05T03:06:03.540Z,100391.98
2019-03-05T03:08:33.009Z,100387.41
2019-03-05T03:11:02.581Z,100390.45
2019-03-05T03:13:32.057Z,100390.66
2019-03-05T03:16:01.470Z,100393.06
2019-03-05T03:18:30.959Z,100393.55
2019-03-05T03:21:00.396Z,100395.53
2019-03-05T03:23:30.147Z,100396.02
2019-03-05T03:25:59.603Z,100391.97
2019-03-05T03:28:28.980Z,100392.81
2019-03-05T03:30:58.418Z,100398.60
2019-03-05T03:33:27.921Z,100389.84
2019-03-05T03:35:57.393Z,100390.78
2019-03-05T03:38:26.900Z,100396.70
2019-03-05T03:40:56.335Z,100393.20
2019-03-05T03:43:25.824Z,100393.19
2019-03-05T03:45:55.339Z,100391.52
2019-03-05T03:48:24.742Z,100384.38
2019-03-05T03:50:54.185Z,100386.16
2019-03-05T03:53:23.588Z,100390.05
2019-03-05T03:55:52.994Z,100385.90
2019-03-05T03:58:22.427Z,100389.91
2019-03-05T04:00:51.971Z,100385.82
2019-03-05T04:03:21.554Z,100382.50
2019-03-05T04:05:51.103Z,100394.27
2019-03-05T04:08:20.574Z,100388.74
2019-03-05T04:10:50.008Z,100383.95
2019-03-05T04:13:19.415Z,100396.94
2019-03-05T04:15:48.927Z,100383.92
2019-03-05T04:18:18.329Z,100390.45
2019-03-05T04:20:49.389Z,100399.82
2019-03-05T04:23:18.840Z,100385.98
2019-03-05T04:25:48.293Z,100396.11
2019-03-05T04:28:17.724Z,100399.69
2019-03-05T04:31:06.474Z,100390.47
2019-03-05T04:33:35.910Z,100389.78
2019-03-05T04:36:05.390Z,100388.36
2019-03-05T04:38:34.831Z,100397.62
2019-03-05T04:41:04.312Z,100398.62
2019-03-05T04:43:33.740Z,100401.41
2019-03-05T04:46:21.065Z,100397.94
2019-03-05T04:48:52.133Z,100397.52
2019-03-05T04:51:23.176Z,100385.56
2019-03-05T04:53:52.614Z,100396.84
2019-03-05T04:56:22.004Z,100406.42
2019-03-05T04:58:51.442Z,100399.23
2019-03-05T05:01:20.840Z,100403.78
2019-03-05T05:03:50.613Z,100408.39
2019-03-05T05:06:20.418Z,100412.52
2019-03-05T05:08:49.826Z,100405.72
2019-03-05T05:11:19.271Z,100406.35
2019-03-05T05:13:49.021Z,100407.84
2019-03-05T05:16:18.459Z,100407.23
2019-03-05T05:18:48.231Z,100412.51
2019-03-05T05:21:17.707Z,100417.03
2019-03-05T05:23:47.129Z,100417.09
2019-03-05T05:26:23.265Z,100417.88
2019-03-05T05:28:52.770Z,100422.55
2019-03-05T05:31:22.198Z,100418.05
2019-03-05T05:33:51.604Z,100414.56
2019-03-05T05:36:21.043Z,100421.03
2019-03-05T05:38:50.446Z,100418.77
2019-03-05T05:41:19.942Z,100416.38
2019-03-05T05:43:49.464Z,100409.42
2019-03-05T05:46:18.964Z,100416.17
2019-03-05T05:48:48.387Z,100422.55
2019-03-05T05:51:17.776Z,100420.80
2019-03-05T05:53:47.222Z,100415.16
2019-03-05T05:56:16.633Z,100417.18
2019-03-05T05:58:46.063Z,100421.13
2019-03-05T06:01:15.494Z,100415.16
2019-03-05T06:03:44.972Z,100414.52
2019-03-05T06:06:14.477Z,100420.77
2019-03-05T06:08:43.885Z,100418.21
2019-03-05T06:11:13.425Z,100422.38
2019-03-05T06:13:42.814Z,100434.98
2019-03-05T06:16:12.217Z,100427.50
2019-03-05T06:18:41.652Z,100423.55
2019-03-05T06:21:11.072Z,100426.58
2019-03-05T06:23:40.504Z,100429.11
2019-03-05T06:26:09.912Z,100429.94
2019-03-05T06:28:39.666Z,100426.83
2019-03-05T06:31:09.076Z,100428.83
2019-03-05T06:33:38.485Z,100431.78
2019-03-05T06:36:07.954Z,100435.45
2019-03-05T06:38:37.375Z,100445.33
2019-03-05T06:41:06.814Z,100444.03
2019-03-05T06:43:36.235Z,100455.84
2019-03-05T06:46:05.656Z,100461.38
2019-03-05T06:48:35.373Z,100459.55
2019-03-05T06:51:04.793Z,100459.39
2019-03-05T06:53:34.245Z,100463.86
2019-03-05T06:56:03.656Z,100455.94
2019-03-05T06:58:33.071Z,100460.07
2019-03-05T07:01:02.506Z,100465.27
2019-03-05T07:03:31.913Z,100459.47
2019-03-05T07:06:47.709Z,100453.96
2019-03-05T07:09:36.965Z,100465.12
2019-03-05T07:12:11.114Z,100467.17
2019-03-05T07:15:20.244Z,100480.59
2019-03-05T07:18:12.540Z,100489.78
2019-03-05T07:21:09.192Z,100485.87
2019-03-05T07:24:00.778Z,100487.81
2019-03-05T07:26:30.209Z,100493.94
2019-03-05T07:28:59.758Z,100490.05
2019-03-05T07:31:29.258Z,100488.22
2019-03-05T07:33:58.663Z,100492.91
2019-03-05T07:36:28.115Z,100495.30
2019-03-05T07:38:57.541Z,100500.83
2019-03-05T07:41:26.947Z,100495.89
2019-03-05T07:43:56.404Z,100497.72
2019-03-05T07:46:26.150Z,100499.48
2019-03-05T07:48:55.973Z,100502.35
2019-03-05T07:51:25.398Z,100507.50
2019-03-05T07:53:54.872Z,100501.77
2019-03-05T07:56:24.298Z,100499.26
2019-03-05T07:58:54.083Z,100501.20
2019-03-05T08:01:23.515Z,100492.88
2019-03-05T08:03:52.934Z,100504.89
2019-03-05T08:06:22.337Z,100498.67
2019-03-05T08:09:30.540Z,100505.63
2019-03-05T08:12:32.988Z,100510.23
2019-03-05T08:15:18.338Z,100520.97
2019-03-05T08:17:48.154Z,100541.83
2019-03-05T08:20:17.822Z,100535.96
2019-03-05T08:22:47.358Z,100548.59
2019-03-05T08:25:16.824Z,100546.61
2019-03-05T08:27:46.479Z,100536.25
2019-03-05T08:30:18.108Z,100545.37
2019-03-05T08:32:47.672Z,100536.80
2019-03-05T08:35:17.155Z,100543.67
2019-03-05T08:37:46.860Z,100539.09
2019-03-05T08:40:17.774Z,100551.70
2019-03-05T08:42:47.264Z,100547.48
2019-03-05T08:45:28.479Z,100556.63
2019-03-05T08:47:48.658Z,100558.38
2019-03-05T08:50:18.103Z,100559.37
2019-03-05T08:52:47.674Z,100568.69
2019-03-05T08:55:17.256Z,100564.03
2019-03-05T08:57:46.691Z,100574.94
2019-03-05T09:00:21.450Z,100570.72
2019-03-05T09:02:51.202Z,100571.46
2019-03-05T09:05:20.938Z,100576.55
2019-03-05T09:07:51.089Z,100579.84
2019-03-05T09:10:27.352Z,100573.98
2019-03-05T09:12:57.131Z,100570.27
2019-03-05T09:15:26.736Z,100579.16
2019-03-05T09:17:56.605Z,100590.81
2019-03-05T09:20:26.098Z,100590.58
2019-03-05T09:22:55.616Z,100589.73
2019-03-05T09:25:25.118Z,100590.15
2019-03-05T09:27:55.357Z,100586.87
2019-03-05T09:30:25.493Z,100595.08
2019-03-05T09:32:54.986Z,100596.06
2019-03-05T09:35:24.507Z,100590.13
2019-03-05T09:37:54.006Z,100587.95
2019-03-05T09:40:28.819Z,100585.10
2019-03-05T09:42:58.306Z,100595.95
2019-03-05T09:45:28.413Z,100595.53
2019-03-05T09:47:57.972Z,100596.86
2019-03-05T09:50:27.524Z,100595.45
2019-03-05T09:52:56.976Z,100600.66
2019-03-05T09:55:27.250Z,100602.56
2019-03-05T09:58:07.629Z,100600.33
2019-03-05T10:00:30.078Z,100601.27
2019-03-05T10:02:59.626Z,100594.55
2019-03-05T10:05:29.139Z,100614.61
2019-03-05T10:07:58.566Z,100611.71
2019-03-05T10:10:31.816Z,100606.87
2019-03-05T10:13:04.263Z,100619.78
2019-03-05T10:15:33.388Z,100614.63
2019-03-05T10:18:12.131Z,100622.42
2019-03-05T10:20:35.573Z,100609.45
2019-03-05T10:23:05.980Z,100617.77
2019-03-05T10:25:35.549Z,100621.17
2019-03-05T10:28:06.006Z,100610.27
2019-03-05T10:30:42.308Z,100609.44
2019-03-05T10:33:12.691Z,100614.14
2019-03-05T10:35:42.185Z,100622.17
2019-03-05T10:38:16.060Z,100616.39
2019-03-05T10:40:51.040Z,100619.64
2019-03-05T10:43:20.513Z,100619.50
2019-03-05T10:45:50.811Z,100630.06
2019-03-05T10:48:23.878Z,100629.59
2019-03-05T10:50:53.431Z,100626.33
2019-03-05T10:53:22.998Z,100628.15
2019-03-05T10:55:52.573Z,100633.91
2019-03-05T10:58:32.767Z,100633.09
2019-03-05T11:00:55.913Z,100628.16
2019-03-05T11:03:29.232Z,100627.69
2019-03-05T11:05:58.869Z,100637.50
2019-03-05T11:08:28.830Z,100642.47
2019-03-05T11:10:58.588Z,100642.03
2019-03-05T11:13:28.097Z,100644.00
2019-03-05T11:16:00.881Z,100643.59
2019-03-05T11:18:30.400Z,100649.08
2019-03-05T11:20:59.898Z,100641.09
2019-03-05T11:23:29.345Z,100643.75
2019-03-05T11:25:58.780Z,100637.05
2019-03-05T11:28:28.275Z,100644.72
2019-03-05T11:30:57.710Z,100643.63
2019-03-05T11:33:27.180Z,100643.00
2019-03-05T11:35:56.786Z,100652.06
2019-03-05T11:38:26.787Z,100657.77
2019-03-05T11:40:56.311Z,100657.82
2019-03-05T11:43:25.722Z,100661.65
2019-03-05T11:45:55.589Z,100656.39
2019-03-05T11:48:25.051Z,100657.87
2019-03-05T11:50:54.558Z,100665.17
2019-03-05T11:53:24.139Z,100662.66
2019-03-05T11:55:53.564Z,100672.44
2019-03-05T11:58:23.020Z,100672.48
2019-03-05T12:00:54.154Z,100667.08
2019-03-05T12:03:23.579Z,100671.20
2019-03-05T12:05:53.107Z,100671.91
2019-03-05T12:08:22.605Z,100679.78
2019-03-05T12:10:52.153Z,100682.53
2019-03-05T12:13:21.721Z,100665.97
2019-03-05T12:15:51.227Z,100668.91
2019-03-05T12:18:21.262Z,100671.84
2019-03-05T12:20:50.664Z,100665.41
2019-03-05T12:23:22.152Z,100672.09
2019-03-05T12:25:51.658Z,100681.82
2019-03-05T12:28:24.075Z,100670.50
2019-03-05T12:30:52.921Z,100672.20
2019-03-05T12:33:24.177Z,100675.06
2019-03-05T12:35:53.705Z,100679.14
2019-03-05T12:38:23.149Z,100681.20
2019-03-05T12:40:52.753Z,100688.13
2019-03-05T12:43:22.190Z,100682.05
2019-03-05T12:45:53.386Z,100681.86
2019-03-05T12:48:22.903Z,100677.95
2019-03-05T12:50:52.568Z,100672.23
2019-03-05T12:53:22.078Z,100673.21
2019-03-05T12:55:51.479Z,100676.89
2019-03-05T12:58:21.282Z,100692.90
2019-03-05T13:00:50.787Z,100699.57
2019-03-05T13:03:20.235Z,100702.01
2019-03-05T13:05:49.753Z,100708.95
2019-03-05T13:08:19.187Z,100697.01
2019-03-05T13:10:48.837Z,100691.24
2019-03-05T13:13:18.358Z,100697.24
2019-03-05T13:15:47.934Z,100694.75
2019-03-05T13:18:17.801Z,100704.18
2019-03-05T13:20:47.199Z,100709.52
2019-03-05T13:23:16.940Z,100700.72
2019-03-05T13:25:46.490Z,100704.16
2019-03-05T13:28:15.987Z,100699.48
2019-03-05T13:30:45.578Z,100699.98
2019-03-05T13:33:15.083Z,100691.64
2019-03-05T13:35:44.487Z,100702.27
2019-03-05T13:38:13.998Z,100710.30
2019-03-05T13:40:43.427Z,100711.18
2019-03-05T13:43:12.859Z,100726.02
2019-03-05T13:45:49.127Z,100716.00
2019-03-05T13:48:19.614Z,100704.20
2019-03-05T13:51:19.505Z,100707.23
2019-03-05T13:54:17.824Z,100709.66
2019-03-05T13:57:19.567Z,100712.88
2019-03-05T13:59:49.765Z,100718.83
2019-03-05T14:02:26.919Z,100710.45
2019-03-05T14:05:06.827Z,100713.61
2019-03-05T14:08:15.476Z,100716.55
2019-03-05T14:10:44.933Z,100715.94
2019-03-05T14:13:14.394Z,100718.22
2019-03-05T14:15:45.510Z,100716.03
2019-03-05T14:18:15.459Z,100717.06
2019-03-05T14:20:44.990Z,100721.55
2019-03-05T14:23:14.472Z,100727.66
2019-03-05T14:25:44.495Z,100723.90
2019-03-05T14:28:14.021Z,100734.03
2019-03-05T14:30:44.956Z,100725.06
2019-03-05T14:33:14.631Z,100729.38
2019-03-05T14:35:47.390Z,100739.75
2019-03-05T14:38:16.390Z,100739.54
2019-03-05T14:40:46.406Z,100745.37
2019-03-05T14:43:15.971Z,100750.11
2019-03-05T14:45:45.619Z,100744.92
2019-03-05T14:48:15.118Z,100743.09
2019-03-05T14:50:46.344Z,100754.52
2019-03-05T14:53:15.880Z,100758.75
2019-03-05T14:55:45.529Z,100755.09
2019-03-05T14:58:14.963Z,100750.13
2019-03-05T15:00:44.664Z,100749.81
2019-03-05T15:03:14.358Z,100753.89
2019-03-05T15:05:43.820Z,100748.59
2019-03-05T15:08:13.291Z,100752.06
2019-03-05T15:10:42.785Z,100752.06
2019-03-05T15:13:17.213Z,100747.12
2019-03-05T15:15:43.753Z,100747.39
2019-03-05T15:18:13.356Z,100755.00
2019-03-05T15:20:42.817Z,100746.84
2019-03-05T15:23:12.447Z,100741.33
2019-03-05T15:25:42.051Z,100750.43
2019-03-05T15:28:11.478Z,100739.09
2019-03-05T15:30:40.998Z,100738.72
2019-03-05T15:33:10.499Z,100745.26
2019-03-05T15:35:39.995Z,100741.31
2019-03-05T15:38:09.486Z,100739.32
2019-03-05T15:40:42.149Z,100734.53
2019-03-05T15:43:13.207Z,100740.74
2019-03-05T15:45:42.818Z,100739.63
2019-03-05T15:48:12.412Z,100733.70
2019-03-05T15:50:42.274Z,100736.41
2019-03-05T15:53:14.679Z,100735.61
2019-03-05T15:55:44.165Z,100739.78
2019-03-05T15:58:15.254Z,100736.70
2019-03-05T16:00:45.186Z,100745.66
2019-03-05T16:03:15.501Z,100748.70
2019-03-05T16:05:45.069Z,100738.78
2019-03-05T16:08:14.483Z,100729.48
2019-03-05T16:10:43.991Z,100738.02
2019-03-05T16:13:15.265Z,100742.41
2019-03-05T16:15:45.498Z,100746.02
2019-03-05T16:18:16.046Z,100752.14
2019-03-05T16:20:45.542Z,100744.67
2019-03-05T16:23:14.993Z,100744.30
2019-03-05T16:25:46.163Z,100746.71
2019-03-05T16:28:16.495Z,100747.59
2019-03-05T16:30:53.577Z,100744.57
2019-03-05T16:33:27.396Z,100751.94
2019-03-05T16:36:16.808Z,100748.03
2019-03-05T16:38:55.122Z,100740.88
2019-03-05T16:41:27.392Z,100738.80
2019-03-05T16:43:58.473Z,100744.17
2019-03-05T16:46:45.760Z,100746.28
2019-03-05T16:49:32.118Z,100749.23
2019-03-05T16:52:19.062Z,100751.45
2019-03-05T16:54:50.226Z,100755.61
2019-03-05T16:57:27.625Z,100761.70
2019-03-05T17:00:14.699Z,100759.03
2019-03-05T17:02:49.020Z,100760.34
2019-03-05T17:05:42.366Z,100761.16
2019-03-05T17:08:29.712Z,100760.16
2019-03-05T17:11:01.260Z,100761.55
2019-03-05T17:13:30.765Z,100755.27
2019-03-05T17:16:00.183Z,100769.11
2019-03-05T17:18:29.612Z,100763.80
2019-03-05T17:20:59.066Z,100772.36
2019-03-05T17:23:28.549Z,100771.45
2019-03-05T17:25:58.059Z,100775.70
2019-03-05T17:28:27.559Z,100782.95
2019-03-05T17:30:57.075Z,100781.45
2019-03-05T17:33:26.792Z,100778.85
2019-03-05T17:35:56.222Z,100774.50
2019-03-05T17:38:25.670Z,100780.00
2019-03-05T17:40:55.192Z,100784.02
2019-03-05T17:43:24.858Z,100785.62
2019-03-05T17:45:54.303Z,100781.58
2019-03-05T17:48:23.716Z,100779.13
2019-03-05T17:51:00.046Z,100780.17
2019-03-05T17:53:29.823Z,100777.56
2019-03-05T17:55:59.400Z,100775.16
2019-03-05T17:58:28.955Z,100778.16
2019-03-05T18:00:58.619Z,100775.69
2019-03-05T18:03:28.090Z,100777.08
2019-03-05T18:05:57.508Z,100779.61
2019-03-05T18:08:27.026Z,100773.47
2019-03-05T18:10:56.476Z,100782.89
2019-03-05T18:13:25.964Z,100781.63
2019-03-05T18:15:55.413Z,100787.22
2019-03-05T18:18:24.912Z,100792.75
2019-03-05T18:20:54.481Z,100796.27
2019-03-05T18:23:24.162Z,100794.30
2019-03-05T18:25:53.701Z,100796.04
2019-03-05T18:28:23.264Z,100799.52
2019-03-05T18:30:52.848Z,100798.47
2019-03-05T18:33:22.286Z,100802.27
2019-03-05T18:35:51.769Z,100806.33
2019-03-05T18:38:21.336Z,100804.59
2019-03-05T18:40:51.644Z,100809.58
2019-03-05T18:43:21.116Z,100814.31
2019-03-05T18:45:50.891Z,100807.39
2019-03-05T18:48:20.324Z,100813.76
2019-03-05T18:50:49.825Z,100807.71
2019-03-05T18:53:19.303Z,100803.80
2019-03-05T18:55:48.793Z,100808.59
2019-03-05T18:58:18.230Z,100804.92
2019-03-05T19:00:47.661Z,100801.95
2019-03-05T19:03:20.166Z,100799.56
2019-03-05T19:05:49.769Z,100794.88
2019-03-05T19:08:19.170Z,100796.97
2019-03-05T19:10:48.976Z,100797.52
2019-03-05T19:13:18.481Z,100800.27
2019-03-05T19:15:48.282Z,100796.87
2019-03-05T19:18:18.013Z,100793.22
2019-03-05T19:20:47.529Z,100792.44
2019-03-05T19:23:17.149Z,100797.86
2019-03-05T19:25:47.946Z,100792.75
2019-03-05T19:28:17.516Z,100791.77
2019-03-05T19:30:53.399Z,100795.53
2019-03-05T19:33:22.823Z,100791.95
2019-03-05T19:35:52.391Z,100791.76
2019-03-05T19:38:22.135Z,100796.65
2019-03-05T19:40:51.733Z,100788.36
2019-03-05T19:43:21.480Z,100795.69
2019-03-05T19:45:50.971Z,100790.38
2019-03-05T19:48:20.383Z,100793.41
2019-03-05T19:50:49.811Z,100786.51
2019-03-05T19:53:19.327Z,100787.58
2019-03-05T19:55:48.893Z,100781.30
2019-03-05T19:58:18.413Z,100775.52
2019-03-05T20:01:02.838Z,100778.54
2019-03-05T20:03:32.424Z,100770.46
2019-03-05T20:06:02.132Z,100776.50
2019-03-05T20:08:39.386Z,100769.59
2019-03-05T20:11:03.058Z,100771.34
2019-03-05T20:13:32.525Z,100768.62
2019-03-05T20:16:02.118Z,100771.55
2019-03-05T20:18:31.602Z,100766.13
2019-03-05T20:21:01.017Z,100767.09
2019-03-05T20:23:30.567Z,100762.37
2019-03-05T20:26:00.232Z,100758.69
2019-03-05T20:28:29.705Z,100761.63
2019-03-05T20:30:59.147Z,100761.71
2019-03-05T20:33:28.662Z,100764.81
2019-03-05T20:35:58.336Z,100761.61
2019-03-05T20:38:27.852Z,100758.15
2019-03-05T20:40:57.482Z,100750.57
2019-03-05T20:43:26.912Z,100749.75
2019-03-05T20:46:16.406Z,100758.70
2019-03-05T20:48:45.819Z,100756.39
2019-03-05T20:51:15.279Z,100758.56
2019-03-05T20:53:44.790Z,100756.95
2019-03-05T20:56:14.628Z,100759.88
2019-03-05T20:58:44.064Z,100753.67
2019-03-05T21:01:13.629Z,100757.27
2019-03-05T21:03:43.238Z,100753.42
2019-03-05T21:06:12.878Z,100754.50
2019-03-05T21:08:42.602Z,100753.02
2019-03-05T21:11:12.466Z,100745.02
2019-03-05T21:13:41.978Z,100753.03
2019-03-05T21:16:11.508Z,100743.54
2019-03-05T21:18:41.275Z,100737.42
2019-03-05T21:21:10.749Z,100743.84
2019-03-05T21:23:40.215Z,100736.77
2019-03-05T21:26:09.708Z,100731.28
2019-03-05T21:28:39.179Z,100730.16
2019-03-05T21:31:09.046Z,100721.72
2019-03-05T21:33:38.772Z,100719.50
2019-03-05T21:36:08.290Z,100718.78
2019-03-05T21:38:37.826Z,100710.19
2019-03-05T21:41:07.359Z,100712.53
2019-03-05T21:43:36.791Z,100711.75
2019-03-05T21:46:16.785Z,100710.60
2019-03-05T21:48:46.208Z,100707.20
2019-03-05T21:51:15.947Z,100702.45
2019-03-05T21:53:45.392Z,100708.96
2019-03-05T21:56:14.817Z,100703.39
2019-03-05T21:58:44.330Z,100696.31
2019-03-05T22:01:14.155Z,100708.67
2019-03-05T22:03:43.591Z,100699.03
2019-03-05T22:06:13.038Z,100701.99
2019-03-05T22:08:42.466Z,100698.37
2019-03-05T22:11:11.938Z,100692.55
2019-03-05T22:13:41.357Z,100687.28
2019-03-05T22:16:10.866Z,100693.50
2019-03-05T22:18:40.295Z,100685.79
2019-03-05T22:21:09.965Z,100693.70
2019-03-05T22:23:39.472Z,100688.79
2019-03-05T22:26:08.885Z,100684.73
2019-03-05T22:28:38.479Z,100684.91
2019-03-05T22:31:08.072Z,100685.89
2019-03-05T22:33:37.503Z,100677.05
2019-03-05T22:36:07.108Z,100675.42
2019-03-05T22:38:36.523Z,100678.56
2019-03-05T22:41:06.049Z,100676.63
2019-03-05T22:43:35.479Z,100672.77
2019-03-05T22:46:04.894Z,100669.97
2019-03-05T22:48:34.343Z,100668.41
2019-03-05T22:51:03.856Z,100667.95
2019-03-05T22:53:33.320Z,100661.88
2019-03-05T22:56:02.760Z,100669.98
2019-03-05T22:58:32.196Z,100661.92
2019-03-05T23:01:12.738Z,100658.20
2019-03-05T23:03:42.768Z,100655.81
2019-03-05T23:06:13.290Z,100650.64
2019-03-05T23:08:43.188Z,100641.33
2019-03-05T23:11:12.747Z,100656.09
2019-03-05T23:13:42.878Z,100644.84
2019-03-05T23:16:12.510Z,100634.59
2019-03-05T23:18:42.087Z,100633.20
2019-03-05T23:21:11.801Z,100629.67
2019-03-05T23:23:41.298Z,100624.95
2019-03-05T23:26:10.968Z,100625.18
2019-03-05T23:28:41.043Z,100621.39
2019-03-05T23:31:12.514Z,100612.90
2019-03-05T23:33:42.301Z,100603.48
2019-03-05T23:36:11.935Z,100602.66
2019-03-05T23:38:41.372Z,100603.97
2019-03-05T23:41:10.930Z,100599.63
2019-03-05T23:43:40.444Z,100597.29
2019-03-05T23:46:09.934Z,100594.08
2019-03-05T23:48:39.355Z,100585.97
2019-03-05T23:51:08.843Z,100592.94
2019-03-05T23:53:38.262Z,100582.19
2019-03-05T23:56:07.718Z,100584.91
2019-03-05T23:58:37.179Z,100574.04
